createdAt,value
2023-05-19T00:01:45.575Z,9.94
2023-05-19T00:04:15.325Z,10.01
2023-05-19T00:06:42.329Z,9.98
2023-05-19T00:09:09.988Z,9.90
2023-05-19T00:11:38.117Z,10.13
2023-05-19T00:14:06.430Z,10.05
2023-05-19T00:16:33.315Z,9.79
2023-05-19T00:19:00.963Z,9.81
2023-05-19T00:21:28.286Z,9.99
2023-05-19T00:23:55.218Z,10.04
2023-05-19T00:26:22.886Z,9.83
2023-05-19T00:28:49.943Z,9.85
2023-05-19T00:31:16.761Z,10.12
2023-05-19T00:33:43.470Z,10.24
2023-05-19T00:36:10.233Z,10.48
2023-05-19T00:38:37.058Z,10.31
2023-05-19T00:41:04.368Z,10.20
2023-05-19T00:43:31.171Z,10.05
2023-05-19T00:45:58.140Z,10.11
2023-05-19T00:48:27.731Z,10.19
2023-05-19T00:50:55.606Z,10.41
2023-05-19T00:53:22.329Z,10.29
2023-05-19T00:55:49.043Z,10.48
2023-05-19T00:58:16.173Z,9.97
2023-05-19T01:00:43.379Z,9.99
2023-05-19T01:03:13.141Z,9.73
2023-05-19T01:05:41.767Z,9.95
2023-05-19T01:08:08.971Z,10.18
2023-05-19T01:10:35.675Z,10.23
2023-05-19T01:13:03.327Z,10.28
2023-05-19T01:15:30.133Z,10.27
2023-05-19T01:18:07.520Z,10.27
2023-05-19T01:20:48.720Z,10.44
2023-05-19T01:23:36.717Z,10.45
2023-05-19T01:26:03.403Z,10.45
2023-05-19T01:28:29.968Z,10.32
2023-05-19T01:30:57.104Z,9.99
2023-05-19T01:33:24.094Z,9.88
2023-05-19T01:35:51.214Z,9.97
2023-05-19T01:38:18.832Z,10.19
2023-05-19T01:40:45.841Z,9.96
2023-05-19T01:43:15.982Z,10.01
2023-05-19T01:45:42.754Z,10.08
2023-05-19T01:48:11.019Z,10.38
2023-05-19T01:50:38.034Z,10.46
2023-05-19T01:53:04.809Z,10.35
2023-05-19T01:55:31.542Z,10.23
2023-05-19T01:58:13.022Z,9.92
2023-05-19T02:00:52.242Z,9.77
2023-05-19T02:03:43.103Z,9.83
2023-05-19T02:06:28.579Z,9.73
2023-05-19T02:09:09.388Z,9.91
2023-05-19T02:11:37.882Z,10.06
2023-05-19T02:14:34.390Z,10.10
2023-05-19T02:17:01.169Z,9.92
2023-05-19T02:19:34.975Z,9.88
2023-05-19T02:22:01.639Z,10.04
2023-05-19T02:24:28.237Z,10.11
2023-05-19T02:26:55.057Z,10.00
2023-05-19T02:29:21.780Z,9.94
2023-05-19T02:31:48.561Z,10.04
2023-05-19T02:34:15.463Z,10.13
2023-05-19T02:36:44.943Z,10.21
2023-05-19T02:39:11.813Z,10.15
2023-05-19T02:41:38.895Z,10.27
2023-05-19T02:44:05.637Z,10.00
2023-05-19T02:46:32.332Z,9.79
2023-05-19T02:48:59.160Z,9.70
2023-05-19T02:51:25.909Z,9.97
2023-05-19T02:53:52.586Z,10.15
2023-05-19T02:56:19.249Z,10.00
2023-05-19T02:58:46.014Z,10.05
2023-05-19T03:01:12.715Z,10.13
2023-05-19T03:03:39.579Z,9.85
2023-05-19T03:06:08.800Z,9.63
2023-05-19T03:08:36.217Z,9.83
2023-05-19T03:11:03.269Z,9.86
2023-05-19T03:13:30.010Z,9.61
2023-05-19T03:15:58.863Z,9.72
2023-05-19T03:18:28.632Z,9.61
2023-05-19T03:20:55.621Z,9.55
2023-05-19T03:23:22.400Z,9.89
2023-05-19T03:25:49.103Z,10.05
2023-05-19T03:28:15.901Z,9.95
2023-05-19T03:30:42.569Z,10.05
2023-05-19T03:33:09.508Z,10.20
2023-05-19T03:35:36.275Z,10.19
2023-05-19T03:38:02.967Z,10.39
2023-05-19T03:40:29.708Z,10.20
2023-05-19T03:42:56.834Z,9.83
2023-05-19T03:45:23.495Z,9.78
2023-05-19T03:47:50.378Z,9.96
2023-05-19T03:50:16.983Z,10.21
2023-05-19T03:52:46.533Z,10.11
2023-05-19T03:55:14.812Z,10.09
2023-05-19T03:57:41.652Z,10.05
2023-05-19T04:00:11.289Z,10.11
2023-05-19T04:02:38.185Z,10.27
2023-05-19T04:05:05.276Z,10.18
2023-05-19T04:07:32.048Z,10.30
2023-05-19T04:09:58.820Z,10.35
2023-05-19T04:12:25.543Z,10.60
2023-05-19T04:14:52.275Z,10.43
2023-05-19T04:17:19.041Z,10.36
2023-05-19T04:19:45.850Z,10.40
2023-05-19T04:22:12.517Z,10.45
2023-05-19T04:24:39.249Z,10.72
2023-05-19T04:27:12.048Z,10.77
2023-05-19T04:29:40.119Z,10.87
2023-05-19T04:32:07.886Z,10.38
2023-05-19T04:34:35.380Z,10.61
2023-05-19T04:37:02.633Z,10.82
2023-05-19T04:39:29.363Z,10.85
2023-05-19T04:41:56.661Z,10.54
2023-05-19T04:44:23.501Z,10.96
2023-05-19T04:46:54.222Z,10.88
2023-05-19T04:49:21.238Z,11.01
2023-05-19T04:51:50.550Z,11.25
2023-05-19T04:54:18.142Z,11.17
2023-05-19T04:56:44.902Z,10.77
2023-05-19T04:59:11.569Z,10.75
2023-05-19T05:01:43.127Z,11.10
2023-05-19T05:04:10.063Z,11.32
2023-05-19T05:06:38.495Z,10.90
2023-05-19T05:09:05.271Z,10.76
2023-05-19T05:11:32.212Z,10.83
2023-05-19T05:13:59.308Z,11.05
2023-05-19T05:16:26.741Z,11.21
2023-05-19T05:18:53.793Z,11.38
2023-05-19T05:21:20.867Z,11.42
2023-05-19T05:23:47.799Z,11.68
2023-05-19T05:26:18.712Z,11.45
2023-05-19T05:28:45.632Z,11.60
2023-05-19T05:31:12.319Z,11.57
2023-05-19T05:33:39.105Z,11.50
2023-05-19T05:36:06.202Z,11.82
2023-05-19T05:38:32.992Z,11.92
2023-05-19T05:41:00.514Z,11.98
2023-05-19T05:43:27.213Z,11.99
2023-05-19T05:45:53.931Z,11.97
2023-05-19T05:48:20.915Z,12.17
2023-05-19T05:50:47.672Z,12.25
2023-05-19T05:53:18.485Z,12.50
2023-05-19T05:55:46.649Z,12.61
2023-05-19T05:58:14.925Z,12.55
2023-05-19T06:00:45.392Z,12.35
2023-05-19T06:03:12.325Z,12.51
2023-05-19T06:05:39.423Z,12.74
2023-05-19T06:08:06.337Z,12.75
2023-05-19T06:10:33.463Z,12.70
2023-05-19T06:13:00.499Z,13.06
2023-05-19T06:15:27.274Z,13.38
2023-05-19T06:17:54.899Z,13.49
2023-05-19T06:20:21.934Z,13.57
2023-05-19T06:22:48.672Z,13.74
2023-05-19T06:25:15.820Z,13.75
2023-05-19T06:27:42.517Z,13.72
2023-05-19T06:30:09.556Z,13.78
2023-05-19T06:32:36.214Z,13.92
2023-05-19T06:35:03.107Z,13.87
2023-05-19T06:37:29.851Z,14.07
2023-05-19T06:39:56.610Z,14.19
2023-05-19T06:42:24.158Z,14.40
2023-05-19T06:44:51.444Z,14.40
2023-05-19T06:47:18.398Z,14.56
2023-05-19T06:49:45.692Z,14.75
2023-05-19T06:52:12.366Z,14.29
2023-05-19T06:54:39.145Z,13.79
2023-05-19T06:57:05.910Z,14.12
2023-05-19T06:59:32.759Z,14.32
2023-05-19T07:01:59.555Z,13.73
2023-05-19T07:04:26.262Z,13.35
2023-05-19T07:06:53.487Z,13.81
2023-05-19T07:09:20.278Z,13.94
2023-05-19T07:11:47.470Z,14.19
2023-05-19T07:14:14.153Z,14.23
2023-05-19T07:16:40.985Z,13.95
2023-05-19T07:19:07.784Z,14.32
2023-05-19T07:21:34.585Z,14.41
2023-05-19T07:24:01.309Z,14.52
2023-05-19T07:26:28.182Z,15.04
2023-05-19T07:28:54.873Z,15.27
2023-05-19T07:31:21.640Z,15.52
2023-05-19T07:33:48.321Z,15.10
2023-05-19T07:36:14.961Z,15.37
2023-05-19T07:38:41.728Z,15.07
2023-05-19T07:41:08.483Z,15.15
2023-05-19T07:43:35.257Z,15.05
2023-05-19T07:46:01.985Z,15.38
2023-05-19T07:48:29.594Z,15.35
2023-05-19T07:50:56.382Z,15.14
2023-05-19T07:53:23.304Z,15.54
2023-05-19T07:55:50.230Z,15.90
2023-05-19T07:58:17.511Z,15.99
2023-05-19T08:00:45.898Z,16.14
2023-05-19T08:03:13.347Z,16.56
2023-05-19T08:05:40.622Z,16.45
2023-05-19T08:08:07.355Z,16.45
2023-05-19T08:10:34.403Z,16.45
2023-05-19T08:13:01.372Z,16.59
2023-05-19T08:15:28.078Z,16.69
2023-05-19T08:17:54.868Z,16.96
2023-05-19T08:20:22.942Z,16.95
2023-05-19T08:22:49.813Z,17.01
2023-05-19T08:25:16.570Z,17.08
2023-05-19T08:27:43.322Z,17.40
2023-05-19T08:30:10.608Z,17.39
2023-05-19T08:32:37.267Z,17.88
2023-05-19T08:35:04.400Z,18.32
2023-05-19T08:37:33.371Z,18.07
2023-05-19T08:40:00.952Z,17.08
2023-05-19T08:42:27.679Z,17.57
2023-05-19T08:44:54.365Z,17.57
2023-05-19T08:47:21.140Z,17.69
2023-05-19T08:49:50.551Z,18.13
2023-05-19T08:52:50.145Z,17.33
2023-05-19T08:55:39.846Z,17.39
2023-05-19T08:58:06.802Z,18.00
2023-05-19T09:00:33.796Z,18.48
2023-05-19T09:03:17.488Z,18.80
2023-05-19T09:05:45.707Z,18.40
2023-05-19T09:08:12.581Z,18.14
2023-05-19T09:10:39.304Z,17.92
2023-05-19T09:13:06.458Z,17.98
2023-05-19T09:15:34.098Z,17.65
2023-05-19T09:18:11.154Z,17.28
2023-05-19T09:20:42.185Z,17.09
2023-05-19T09:23:13.886Z,17.24
2023-05-19T09:25:50.262Z,16.76
2023-05-19T09:28:36.483Z,16.83
2023-05-19T09:31:07.417Z,17.34
2023-05-19T09:33:35.710Z,17.04
2023-05-19T09:36:03.616Z,17.30
2023-05-19T09:38:30.264Z,17.28
2023-05-19T09:40:58.220Z,17.22
2023-05-19T09:43:28.085Z,17.47
2023-05-19T09:46:03.742Z,17.27
2023-05-19T09:48:30.581Z,17.26
2023-05-19T09:50:57.951Z,17.70
2023-05-19T09:53:25.475Z,18.23
2023-05-19T09:55:57.554Z,17.81
2023-05-19T09:58:27.101Z,17.38
2023-05-19T10:00:54.867Z,17.62
2023-05-19T10:03:24.531Z,18.24
2023-05-19T10:05:51.313Z,18.33
2023-05-19T10:08:18.106Z,18.01
2023-05-19T10:10:48.057Z,17.82
2023-05-19T10:13:14.875Z,17.45
2023-05-19T10:15:57.067Z,17.61
2023-05-19T10:18:25.375Z,17.54
2023-05-19T10:20:52.172Z,17.95
2023-05-19T10:23:18.972Z,17.92
2023-05-19T10:25:45.673Z,18.15
2023-05-19T10:28:14.152Z,18.34
2023-05-19T10:30:46.081Z,18.38
2023-05-19T10:33:14.837Z,18.26
2023-05-19T10:36:09.160Z,17.81
2023-05-19T10:38:48.471Z,17.98
2023-05-19T10:41:28.928Z,18.05
2023-05-19T10:44:02.670Z,17.85
2023-05-19T10:46:29.652Z,18.12
2023-05-19T10:48:56.457Z,18.01
2023-05-19T10:51:31.429Z,18.08
2023-05-19T10:53:58.956Z,18.06
2023-05-19T10:56:36.427Z,18.22
2023-05-19T10:59:03.456Z,18.31
2023-05-19T11:01:34.220Z,18.45
2023-05-19T11:04:13.992Z,18.58
2023-05-19T11:06:41.260Z,18.65
2023-05-19T11:09:19.764Z,18.71
2023-05-19T11:11:52.638Z,18.62
2023-05-19T11:14:21.082Z,18.64
2023-05-19T11:16:48.653Z,18.72
2023-05-19T11:19:28.167Z,18.79
2023-05-19T11:21:55.476Z,18.81
2023-05-19T11:24:44.643Z,18.77
2023-05-19T11:27:28.139Z,18.75
2023-05-19T11:29:56.037Z,19.16
2023-05-19T11:32:25.353Z,19.31
2023-05-19T11:34:52.261Z,19.35
2023-05-19T11:37:19.036Z,19.26
2023-05-19T11:39:46.853Z,18.92
2023-05-19T11:42:13.611Z,18.77
2023-05-19T11:44:43.013Z,18.71
2023-05-19T11:47:09.776Z,18.76
2023-05-19T11:49:36.502Z,18.60
2023-05-19T11:52:04.050Z,18.69
2023-05-19T11:54:36.544Z,18.79
2023-05-19T11:57:03.793Z,18.84
2023-05-19T11:59:35.817Z,18.76
2023-05-19T12:02:08.297Z,18.55
2023-05-19T12:04:35.142Z,18.36
2023-05-19T12:07:01.876Z,18.13
2023-05-19T12:09:28.594Z,18.03
2023-05-19T12:11:55.364Z,17.69
2023-05-19T12:14:22.108Z,17.74
2023-05-19T12:16:48.990Z,17.57
2023-05-19T12:19:15.872Z,17.61
2023-05-19T12:21:42.604Z,17.28
2023-05-19T12:24:09.354Z,17.79
2023-05-19T12:26:37.141Z,18.30
2023-05-19T12:29:07.251Z,17.37
2023-05-19T12:31:38.098Z,17.92
2023-05-19T12:34:04.907Z,18.66
2023-05-19T12:36:32.199Z,19.23
2023-05-19T12:38:59.007Z,19.23
2023-05-19T12:41:27.398Z,19.61
2023-05-19T12:43:56.887Z,19.74
2023-05-19T12:46:23.714Z,19.49
2023-05-19T12:48:50.904Z,19.57
2023-05-19T12:51:18.895Z,19.12
2023-05-19T12:53:47.090Z,19.38
2023-05-19T12:56:17.166Z,19.86
2023-05-19T12:58:44.100Z,20.08
2023-05-19T13:01:17.851Z,19.91
2023-05-19T13:03:44.922Z,19.56
2023-05-19T13:06:11.833Z,19.72
2023-05-19T13:08:41.486Z,19.74
2023-05-19T13:11:08.273Z,19.72
2023-05-19T13:13:35.028Z,19.57
2023-05-19T13:16:01.751Z,19.61
2023-05-19T13:18:32.008Z,19.58
2023-05-19T13:20:58.693Z,19.30
2023-05-19T13:23:26.287Z,19.67
2023-05-19T13:25:53.053Z,19.88
2023-05-19T13:28:19.782Z,19.94
2023-05-19T13:30:46.464Z,19.71
2023-05-19T13:33:13.303Z,19.67
2023-05-19T13:35:40.103Z,19.62
2023-05-19T13:38:07.983Z,19.41
2023-05-19T13:40:35.140Z,19.77
2023-05-19T13:43:02.755Z,19.77
2023-05-19T13:45:29.584Z,20.18
2023-05-19T13:47:57.059Z,20.44
2023-05-19T13:50:23.846Z,20.26
2023-05-19T13:52:50.635Z,20.52
2023-05-19T13:55:17.543Z,20.60
2023-05-19T13:57:44.937Z,20.43
2023-05-19T14:00:11.946Z,20.53
2023-05-19T14:02:39.398Z,20.81
2023-05-19T14:05:07.361Z,20.82
2023-05-19T14:07:35.210Z,20.48
2023-05-19T14:10:02.823Z,20.66
2023-05-19T14:12:37.869Z,21.18
2023-05-19T14:15:13.953Z,21.85
2023-05-19T14:17:40.701Z,21.45
2023-05-19T14:20:07.954Z,21.42
2023-05-19T14:22:34.678Z,21.92
2023-05-19T14:25:02.205Z,21.80
2023-05-19T14:27:28.902Z,21.84
2023-05-19T14:29:55.674Z,22.77
2023-05-19T14:32:22.493Z,22.41
2023-05-19T14:34:52.835Z,22.61
2023-05-19T14:37:20.234Z,22.90
2023-05-19T14:39:46.913Z,23.37
2023-05-19T14:42:13.659Z,23.25
2023-05-19T14:44:40.419Z,23.48
2023-05-19T14:47:07.560Z,23.64
2023-05-19T14:49:34.485Z,22.81
2023-05-19T14:52:01.343Z,22.33
2023-05-19T14:54:28.156Z,22.47
2023-05-19T14:56:54.819Z,22.65
2023-05-19T14:59:21.851Z,22.62
2023-05-19T15:01:48.663Z,22.21
2023-05-19T15:04:15.577Z,22.24
2023-05-19T15:06:42.474Z,22.15
2023-05-19T15:09:09.513Z,22.47
2023-05-19T15:11:36.210Z,21.66
2023-05-19T15:14:02.889Z,22.53
2023-05-19T15:16:29.649Z,23.75
2023-05-19T15:18:56.820Z,23.53
2023-05-19T15:21:23.527Z,23.56
2023-05-19T15:23:50.214Z,23.09
2023-05-19T15:26:17.006Z,23.67
2023-05-19T15:28:43.630Z,23.80
2023-05-19T15:31:10.379Z,23.29
2023-05-19T15:33:37.360Z,23.25
2023-05-19T15:36:04.323Z,23.14
2023-05-19T15:38:31.921Z,23.09
2023-05-19T15:40:58.746Z,23.44
2023-05-19T15:43:25.471Z,23.26
2023-05-19T15:45:54.865Z,23.71
2023-05-19T15:48:21.636Z,23.82
2023-05-19T15:50:48.879Z,23.69
2023-05-19T15:53:15.622Z,23.73
2023-05-19T15:55:42.340Z,23.24
2023-05-19T15:58:09.056Z,22.71
2023-05-19T16:00:35.841Z,22.22
2023-05-19T16:03:02.758Z,21.85
2023-05-19T16:05:29.621Z,21.63
2023-05-19T16:07:56.372Z,21.44
2023-05-19T16:10:23.060Z,20.89
2023-05-19T16:12:49.890Z,20.90
2023-05-19T16:15:16.833Z,21.50
2023-05-19T16:17:43.599Z,21.89
2023-05-19T16:20:11.104Z,21.79
2023-05-19T16:22:37.775Z,21.69
2023-05-19T16:25:05.086Z,22.01
2023-05-19T16:27:31.749Z,22.14
2023-05-19T16:29:58.476Z,22.23
2023-05-19T16:32:25.268Z,21.78
2023-05-19T16:34:52.011Z,21.91
2023-05-19T16:37:19.060Z,22.24
2023-05-19T16:39:48.337Z,22.17
2023-05-19T16:42:15.028Z,21.87
2023-05-19T16:44:42.618Z,21.93
2023-05-19T16:47:09.370Z,21.51
2023-05-19T16:49:36.115Z,21.03
2023-05-19T16:52:02.868Z,20.98
2023-05-19T16:54:29.544Z,21.12
2023-05-19T16:56:57.534Z,20.59
2023-05-19T16:59:24.328Z,20.45
2023-05-19T17:01:51.265Z,20.30
2023-05-19T17:04:17.994Z,19.88
2023-05-19T17:06:46.203Z,19.80
2023-05-19T17:09:13.050Z,19.31
2023-05-19T17:11:39.750Z,19.47
2023-05-19T17:14:09.304Z,19.21
2023-05-19T17:16:36.331Z,19.44
2023-05-19T17:19:03.653Z,19.65
2023-05-19T17:21:31.510Z,19.67
2023-05-19T17:23:58.188Z,19.49
2023-05-19T17:26:24.874Z,19.53
2023-05-19T17:28:51.644Z,19.35
2023-05-19T17:31:18.399Z,19.21
2023-05-19T17:33:45.099Z,19.07
2023-05-19T17:36:11.794Z,18.78
2023-05-19T17:38:40.504Z,18.31
2023-05-19T17:41:10.200Z,17.71
2023-05-19T17:43:37.590Z,17.64
2023-05-19T17:46:04.662Z,17.44
2023-05-19T17:48:31.412Z,17.07
2023-05-19T17:50:58.260Z,16.97
2023-05-19T17:53:25.303Z,16.73
2023-05-19T17:55:53.413Z,16.70
2023-05-19T17:58:20.284Z,16.48
2023-05-19T18:00:47.136Z,16.18
2023-05-19T18:03:14.336Z,16.14
2023-05-19T18:05:43.306Z,16.25
2023-05-19T18:08:10.793Z,16.19
2023-05-19T18:10:38.469Z,16.22
2023-05-19T18:13:05.721Z,16.05
2023-05-19T18:15:32.457Z,16.21
2023-05-19T18:17:59.282Z,16.15
2023-05-19T18:20:26.019Z,16.18
2023-05-19T18:22:52.770Z,16.04
2023-05-19T18:25:20.909Z,16.11
2023-05-19T18:27:47.675Z,15.91
2023-05-19T18:30:15.582Z,16.01
2023-05-19T18:32:42.374Z,15.85
2023-05-19T18:35:09.538Z,15.74
2023-05-19T18:37:36.415Z,15.90
2023-05-19T18:40:03.131Z,15.65
2023-05-19T18:42:29.932Z,15.63
2023-05-19T18:44:56.775Z,15.57
2023-05-19T18:47:23.428Z,15.52
2023-05-19T18:49:50.262Z,15.24
2023-05-19T18:52:17.010Z,15.37
2023-05-19T18:54:45.973Z,15.43
2023-05-19T18:57:12.950Z,15.26
2023-05-19T18:59:39.919Z,15.18
2023-05-19T19:02:06.812Z,15.06
2023-05-19T19:04:33.676Z,15.17
2023-05-19T19:07:01.341Z,14.98
2023-05-19T19:09:28.403Z,14.94
2023-05-19T19:11:55.169Z,14.87
2023-05-19T19:14:21.883Z,14.78
2023-05-19T19:16:48.736Z,14.59
2023-05-19T19:19:15.441Z,14.76
2023-05-19T19:21:42.350Z,14.93
2023-05-19T19:24:09.078Z,14.78
2023-05-19T19:26:36.921Z,14.71
2023-05-19T19:29:03.811Z,14.67
2023-05-19T19:31:30.730Z,14.94
2023-05-19T19:34:03.829Z,15.06
2023-05-19T19:36:31.898Z,15.07
2023-05-19T19:38:58.712Z,14.31
2023-05-19T19:41:26.587Z,14.60
2023-05-19T19:43:53.282Z,14.77
2023-05-19T19:46:20.023Z,14.46
2023-05-19T19:48:46.797Z,14.40
2023-05-19T19:51:13.552Z,14.62
2023-05-19T19:53:40.308Z,14.66
2023-05-19T19:56:07.259Z,14.71
2023-05-19T19:58:33.861Z,14.87
2023-05-19T20:01:02.222Z,14.94
2023-05-19T20:03:29.422Z,14.73
2023-05-19T20:05:58.900Z,14.15
2023-05-19T20:08:25.555Z,13.58
2023-05-19T20:10:52.498Z,13.68
2023-05-19T20:13:19.232Z,14.09
2023-05-19T20:15:46.581Z,14.29
2023-05-19T20:18:13.306Z,14.22
2023-05-19T20:20:40.071Z,14.13
2023-05-19T20:23:07.752Z,13.83
2023-05-19T20:25:34.928Z,13.67
2023-05-19T20:28:02.223Z,13.55
2023-05-19T20:30:28.870Z,13.46
2023-05-19T20:32:55.663Z,13.46
2023-05-19T20:35:22.520Z,12.98
2023-05-19T20:37:49.522Z,12.74
2023-05-19T20:40:16.228Z,12.97
2023-05-19T20:42:42.974Z,13.10
2023-05-19T20:45:09.880Z,13.16
2023-05-19T20:47:36.863Z,13.01
2023-05-19T20:50:03.770Z,13.06
2023-05-19T20:52:30.686Z,12.96
2023-05-19T20:54:57.472Z,12.99
2023-05-19T20:57:24.212Z,13.08
2023-05-19T20:59:51.302Z,13.02
2023-05-19T21:02:17.961Z,12.83
2023-05-19T21:04:45.995Z,12.72
2023-05-19T21:07:12.798Z,12.54
2023-05-19T21:09:39.566Z,12.39
2023-05-19T21:12:07.386Z,12.12
2023-05-19T21:14:34.045Z,11.81
2023-05-19T21:17:00.907Z,11.65
2023-05-19T21:19:27.774Z,11.81
2023-05-19T21:21:54.603Z,11.74
2023-05-19T21:24:21.335Z,12.06
2023-05-19T21:26:49.258Z,12.10
2023-05-19T21:29:15.994Z,12.10
2023-05-19T21:31:42.785Z,11.74
2023-05-19T21:34:09.555Z,11.71
2023-05-19T21:36:36.316Z,11.65
2023-05-19T21:39:04.537Z,11.60
2023-05-19T21:41:32.415Z,11.64
2023-05-19T21:43:59.128Z,11.62
2023-05-19T21:46:27.906Z,11.67
2023-05-19T21:48:54.781Z,11.59
2023-05-19T21:51:21.600Z,11.48
2023-05-19T21:53:48.286Z,11.29
2023-05-19T21:56:16.326Z,11.27
2023-05-19T21:58:43.122Z,11.14
2023-05-19T22:01:09.864Z,10.99
2023-05-19T22:03:36.718Z,10.63
2023-05-19T22:06:03.619Z,10.62
2023-05-19T22:08:30.284Z,10.82
2023-05-19T22:10:57.148Z,10.84
2023-05-19T22:13:23.850Z,10.84
2023-05-19T22:15:50.884Z,10.83
2023-05-19T22:18:17.561Z,10.88
2023-05-19T22:20:44.317Z,10.78
2023-05-19T22:23:10.993Z,10.49
2023-05-19T22:25:37.840Z,10.47
2023-05-19T22:28:07.503Z,10.52
2023-05-19T22:30:40.849Z,10.42
2023-05-19T22:33:11.744Z,10.17
2023-05-19T22:35:38.584Z,10.15
2023-05-19T22:38:05.270Z,9.62
2023-05-19T22:40:32.736Z,9.28
2023-05-19T22:42:59.675Z,9.69
2023-05-19T22:45:26.457Z,9.96
2023-05-19T22:47:55.241Z,10.04
2023-05-19T22:50:22.326Z,9.95
2023-05-19T22:52:49.119Z,9.85
2023-05-19T22:55:16.511Z,9.74
2023-05-19T22:57:43.209Z,9.69
2023-05-19T23:00:10.692Z,9.86
2023-05-19T23:02:37.560Z,9.76
2023-05-19T23:05:04.504Z,9.88
2023-05-19T23:07:31.396Z,9.13
2023-05-19T23:09:58.126Z,8.90
2023-05-19T23:12:24.975Z,8.61
2023-05-19T23:14:52.454Z,8.86
2023-05-19T23:17:19.153Z,8.98
2023-05-19T23:19:46.055Z,9.15
2023-05-19T23:22:12.711Z,9.45
2023-05-19T23:24:39.400Z,9.11
2023-05-19T23:27:06.559Z,9.38
2023-05-19T23:29:33.288Z,9.44
2023-05-19T23:32:00.058Z,9.57
2023-05-19T23:34:26.716Z,9.76
2023-05-19T23:36:53.357Z,9.85
2023-05-19T23:39:20.088Z,10.04
2023-05-19T23:41:46.825Z,10.07
2023-05-19T23:44:13.525Z,9.81
2023-05-19T23:46:40.304Z,9.79
2023-05-19T23:49:07.021Z,9.80
2023-05-19T23:51:33.749Z,9.67
2023-05-19T23:54:00.460Z,9.53
2023-05-19T23:56:27.126Z,9.49
2023-05-19T23:58:53.828Z,9.45
